createdAt,value
2018-07-03T00:00:13.064Z,1019.24
2018-07-03T00:01:22.205Z,1019.28
2018-07-03T00:02:31.061Z,1019.29
2018-07-03T00:03:40.075Z,1019.34
2018-07-03T00:04:48.945Z,1019.25
2018-07-03T00:05:58.081Z,1019.33
2018-07-03T00:07:07.497Z,1019.33
2018-07-03T00:08:16.638Z,1019.34
2018-07-03T00:09:25.501Z,1019.33
2018-07-03T00:10:34.361Z,1019.3
2018-07-03T00:11:43.222Z,1019.33
2018-07-03T00:12:52.091Z,1019.39
2018-07-03T00:14:01.229Z,1019.35
2018-07-03T00:15:10.468Z,1019.36
2018-07-03T00:16:19.334Z,1019.35
2018-07-03T00:17:28.749Z,1019.34
2018-07-03T00:18:37.611Z,1019.37
2018-07-03T00:19:46.472Z,1019.36
2018-07-03T00:20:55.384Z,1019.35
2018-07-03T00:22:04.244Z,1019.35
2018-07-03T00:23:13.106Z,1019.37
2018-07-03T00:24:22.243Z,1019.36
2018-07-03T00:25:31.106Z,1019.34
2018-07-03T00:26:40.246Z,1019.33
2018-07-03T00:27:49.105Z,1019.33
2018-07-03T00:28:57.969Z,1019.31
2018-07-03T00:30:06.831Z,1019.32
2018-07-03T00:31:15.691Z,1019.28
2018-07-03T00:32:24.552Z,1019.3
2018-07-03T00:33:33.414Z,1019.33
2018-07-03T00:34:42.276Z,1019.29
2018-07-03T00:35:51.136Z,1019.29
2018-07-03T00:37:00.275Z,1019.25
2018-07-03T00:38:09.239Z,1019.25
2018-07-03T00:39:18.375Z,1019.22
2018-07-03T00:40:27.237Z,1019.26
2018-07-03T00:41:36.104Z,1019.25
2018-07-03T00:42:44.960Z,1019.25
2018-07-03T00:43:54.097Z,1019.29
2018-07-03T00:45:02.960Z,1019.26
2018-07-03T00:46:11.824Z,1019.27
2018-07-03T00:47:20.694Z,1019.3
2018-07-03T00:48:29.553Z,1019.34
2018-07-03T00:49:38.414Z,1019.38
2018-07-03T00:50:47.279Z,1019.39
2018-07-03T00:51:56.418Z,1019.45
2018-07-03T00:53:05.657Z,1019.43
2018-07-03T00:54:14.517Z,1019.4
2018-07-03T00:55:23.431Z,1019.4
2018-07-03T00:56:32.569Z,1019.38
2018-07-03T00:57:41.429Z,1019.38
2018-07-03T00:58:50.291Z,1019.38
2018-07-03T00:59:59.429Z,1019.37
2018-07-03T01:01:08.616Z,1019.34
2018-07-03T01:02:17.477Z,1019.35
2018-07-03T01:03:26.335Z,1019.33
2018-07-03T01:04:35.203Z,1019.35
2018-07-03T01:05:44.063Z,1019.36
2018-07-03T01:06:53.074Z,1019.32
2018-07-03T01:08:02.211Z,1019.33
2018-07-03T01:09:11.072Z,1019.32
2018-07-03T01:10:19.933Z,1019.33
2018-07-03T01:11:28.793Z,1019.34
2018-07-03T01:12:37.904Z,1019.34
2018-07-03T01:13:46.773Z,1019.29
2018-07-03T01:14:55.637Z,1019.33
2018-07-03T01:16:04.777Z,1019.34
2018-07-03T01:17:13.639Z,1019.36
2018-07-03T01:18:22.648Z,1019.35
2018-07-03T01:19:31.785Z,1019.34
2018-07-03T01:20:40.924Z,1019.34
2018-07-03T01:21:49.783Z,1019.3
2018-07-03T01:22:58.923Z,1019.31
2018-07-03T01:24:08.211Z,1019.32
2018-07-03T01:25:17.072Z,1019.35
2018-07-03T01:26:25.932Z,1019.34
2018-07-03T01:27:34.843Z,1019.27
2018-07-03T01:28:43.704Z,1019.29
2018-07-03T01:29:52.913Z,1019.2
2018-07-03T01:31:01.775Z,1019.2
2018-07-03T01:32:10.637Z,1019.22
2018-07-03T01:33:19.497Z,1019.27
2018-07-03T01:34:28.907Z,1019.19
2018-07-03T01:35:38.100Z,1019.2
2018-07-03T01:36:47.242Z,1019.2
2018-07-03T01:37:56.105Z,1019.2
2018-07-03T01:39:05.243Z,1019.2
2018-07-03T01:40:14.106Z,1019.19
2018-07-03T01:41:23.069Z,1019.24
2018-07-03T01:42:32.208Z,1019.22
2018-07-03T01:43:41.068Z,1019.22
2018-07-03T01:44:49.926Z,1019.23
2018-07-03T01:45:59.064Z,1019.22
2018-07-03T01:47:08.276Z,1019.19
2018-07-03T01:48:17.416Z,1019.16
2018-07-03T01:49:26.277Z,1019.19
2018-07-03T01:50:35.138Z,1019.16
2018-07-03T01:51:43.997Z,1019.19
2018-07-03T01:52:53.005Z,1019.19
2018-07-03T01:54:01.865Z,1019.17
2018-07-03T01:55:11.007Z,1019.15
2018-07-03T01:56:19.864Z,1019.22
2018-07-03T01:57:28.726Z,1019.2
2018-07-03T01:58:38.013Z,1019.2
2018-07-03T01:59:47.147Z,1019.22
2018-07-03T02:00:56.008Z,1019.18
2018-07-03T02:02:05.144Z,1019.11
2018-07-03T02:03:14.004Z,1019.15
2018-07-03T02:04:22.914Z,1019.1
2018-07-03T02:05:31.775Z,1019.11
2018-07-03T02:06:40.641Z,1019.11
2018-07-03T02:07:49.503Z,1019.09
2018-07-03T02:08:58.357Z,1019.08
2018-07-03T02:10:07.368Z,1019.08
2018-07-03T02:11:16.555Z,1019.08
2018-07-03T02:12:25.415Z,1019.09
2018-07-03T02:13:34.277Z,1019.06
2018-07-03T02:14:43.139Z,1019.05
2018-07-03T02:15:52.252Z,1019.12
2018-07-03T02:17:01.114Z,1019.04
2018-07-03T02:18:09.975Z,1019.08
2018-07-03T02:19:18.834Z,1019
2018-07-03T02:20:27.695Z,1019
2018-07-03T02:21:36.654Z,1018.98
2018-07-03T02:22:45.516Z,1018.96
2018-07-03T02:23:54.377Z,1018.96
2018-07-03T02:25:03.235Z,1018.96
2018-07-03T02:26:12.097Z,1018.94
2018-07-03T02:27:21.010Z,1018.94
2018-07-03T02:28:30.150Z,1018.94
2018-07-03T02:29:39.011Z,1018.93
2018-07-03T02:30:48.150Z,1018.92
2018-07-03T02:31:57.569Z,1018.92
2018-07-03T02:33:06.721Z,1018.92
2018-07-03T02:34:15.875Z,1018.94
2018-07-03T02:35:25.308Z,1018.88
2018-07-03T02:36:34.437Z,1018.93
2018-07-03T02:37:43.574Z,1018.89
2018-07-03T02:38:53.064Z,1018.88
2018-07-03T02:40:02.488Z,1018.86
2018-07-03T02:41:11.353Z,1018.85
2018-07-03T02:42:20.504Z,1018.81
2018-07-03T02:43:29.366Z,1018.79
2018-07-03T02:44:38.572Z,1018.83
2018-07-03T02:45:47.715Z,1018.78
2018-07-03T02:46:57.413Z,1018.78
2018-07-03T02:48:06.555Z,1018.77
2018-07-03T02:49:15.973Z,1018.75
2018-07-03T02:50:25.387Z,1018.78
2018-07-03T02:51:34.535Z,1018.75
2018-07-03T02:52:43.401Z,1018.75
2018-07-03T02:53:52.536Z,1018.75
2018-07-03T02:55:01.403Z,1018.8
2018-07-03T02:56:10.365Z,1018.81
2018-07-03T02:57:19.498Z,1018.78
2018-07-03T02:58:28.364Z,1018.78
2018-07-03T02:59:37.511Z,1018.76
2018-07-03T03:00:46.651Z,1018.78
2018-07-03T03:01:55.948Z,1018.78
2018-07-03T03:03:04.807Z,1018.79
2018-07-03T03:04:14.223Z,1018.78
2018-07-03T03:05:23.368Z,1018.79
2018-07-03T03:06:32.567Z,1018.8
2018-07-03T03:07:41.758Z,1018.78
2018-07-03T03:08:50.623Z,1018.8
2018-07-03T03:10:00.067Z,1018.79
2018-07-03T03:11:08.926Z,1018.81
2018-07-03T03:12:18.064Z,1018.8
2018-07-03T03:13:27.209Z,1018.82
2018-07-03T03:14:36.622Z,1018.79
2018-07-03T03:15:45.762Z,1018.75
2018-07-03T03:16:55.185Z,1018.76
2018-07-03T03:18:04.050Z,1018.76
2018-07-03T03:19:13.244Z,1018.75
2018-07-03T03:20:22.668Z,1018.76
2018-07-03T03:21:31.805Z,1018.74
2018-07-03T03:22:40.947Z,1018.78
2018-07-03T03:23:49.801Z,1018.78
2018-07-03T03:24:58.662Z,1018.76
2018-07-03T03:26:07.799Z,1018.74
2018-07-03T03:27:16.666Z,1018.74
2018-07-03T03:28:25.527Z,1018.72
2018-07-03T03:29:34.387Z,1018.75
2018-07-03T03:30:43.246Z,1018.74
2018-07-03T03:31:52.390Z,1018.78
2018-07-03T03:33:01.249Z,1018.74
2018-07-03T03:34:10.107Z,1018.74
2018-07-03T03:35:18.964Z,1018.71
2018-07-03T03:36:27.925Z,1018.75
2018-07-03T03:37:36.786Z,1018.67
2018-07-03T03:38:45.645Z,1018.75
2018-07-03T03:39:54.503Z,1018.73
2018-07-03T03:41:03.645Z,1018.73
2018-07-03T03:42:12.656Z,1018.75
2018-07-03T03:43:21.801Z,1018.71
2018-07-03T03:44:30.661Z,1018.76
2018-07-03T03:45:39.520Z,1018.7
2018-07-03T03:46:48.387Z,1018.73
2018-07-03T03:47:58.050Z,1018.71
2018-07-03T03:49:07.185Z,1018.73
2018-07-03T03:50:16.046Z,1018.72
2018-07-03T03:51:25.184Z,1018.69
2018-07-03T03:52:34.043Z,1018.7
2018-07-03T03:53:43.101Z,1018.71
2018-07-03T03:54:52.332Z,1018.73
2018-07-03T03:56:01.195Z,1018.75
2018-07-03T03:57:10.054Z,1018.75
2018-07-03T03:58:19.193Z,1018.74
2018-07-03T03:59:28.256Z,1018.71
2018-07-03T04:00:37.390Z,1018.72
2018-07-03T04:01:46.535Z,1018.74
2018-07-03T04:02:55.392Z,1018.75
2018-07-03T04:04:04.252Z,1018.69
2018-07-03T04:05:13.446Z,1018.75
2018-07-03T04:06:22.583Z,1018.73
2018-07-03T04:07:31.720Z,1018.74
2018-07-03T04:08:40.582Z,1018.76
2018-07-03T04:09:49.448Z,1018.8
2018-07-03T04:10:58.636Z,1018.79
2018-07-03T04:12:07.500Z,1018.77
2018-07-03T04:13:16.357Z,1018.77
2018-07-03T04:14:25.222Z,1018.75
2018-07-03T04:15:34.087Z,1018.76
2018-07-03T04:16:42.948Z,1018.73
2018-07-03T04:17:51.805Z,1018.76
2018-07-03T04:19:00.664Z,1018.78
2018-07-03T04:20:09.525Z,1018.81
2018-07-03T04:21:18.386Z,1018.81
2018-07-03T04:22:27.246Z,1018.8
2018-07-03T04:23:36.107Z,1018.77
2018-07-03T04:24:45.247Z,1018.8
2018-07-03T04:25:54.107Z,1018.79
2018-07-03T04:27:02.966Z,1018.76
2018-07-03T04:28:12.106Z,1018.77
2018-07-03T04:29:21.247Z,1018.76
2018-07-03T04:30:30.111Z,1018.74
2018-07-03T04:31:38.972Z,1018.74
2018-07-03T04:32:47.831Z,1018.75
2018-07-03T04:33:56.695Z,1018.77
2018-07-03T04:35:05.835Z,1018.71
2018-07-03T04:36:14.983Z,1018.72
2018-07-03T04:37:23.842Z,1018.68
2018-07-03T04:38:32.704Z,1018.73
2018-07-03T04:39:42.166Z,1018.67
2018-07-03T04:40:51.032Z,1018.68
2018-07-03T04:42:00.167Z,1018.71
2018-07-03T04:43:09.307Z,1018.69
2018-07-03T04:44:18.167Z,1018.68
2018-07-03T04:45:27.279Z,1018.69
2018-07-03T04:46:36.143Z,1018.66
2018-07-03T04:47:45.337Z,1018.67
2018-07-03T04:48:54.198Z,1018.7
2018-07-03T04:50:03.338Z,1018.7
2018-07-03T04:51:12.349Z,1018.69
2018-07-03T04:52:21.209Z,1018.68
2018-07-03T04:53:30.109Z,1018.7
2018-07-03T04:54:38.936Z,1018.64
2018-07-03T04:55:48.070Z,1018.7
2018-07-03T04:56:57.033Z,1018.69
2018-07-03T04:58:05.901Z,1018.71
2018-07-03T04:59:14.756Z,1018.71
2018-07-03T05:00:23.893Z,1018.69
2018-07-03T05:01:32.759Z,1018.72
2018-07-03T05:02:41.969Z,1018.72
2018-07-03T05:03:50.829Z,1018.71
2018-07-03T05:04:59.968Z,1018.74
2018-07-03T05:06:09.383Z,1018.74
2018-07-03T05:07:18.524Z,1018.73
2018-07-03T05:08:27.730Z,1018.74
2018-07-03T05:09:36.592Z,1018.75
2018-07-03T05:10:45.454Z,1018.74
2018-07-03T05:11:54.322Z,1018.74
2018-07-03T05:13:03.186Z,1018.69
2018-07-03T05:14:12.336Z,1018.72
2018-07-03T05:15:21.199Z,1018.73
2018-07-03T05:16:30.338Z,1018.77
2018-07-03T05:17:39.204Z,1018.71
2018-07-03T05:18:48.072Z,1018.71
2018-07-03T05:19:56.935Z,1018.71
2018-07-03T05:21:06.082Z,1018.75
2018-07-03T05:22:15.228Z,1018.75
2018-07-03T05:23:24.089Z,1018.75
2018-07-03T05:24:32.955Z,1018.77
2018-07-03T05:25:42.206Z,1018.81
2018-07-03T05:26:51.347Z,1018.82
2018-07-03T05:28:00.207Z,1018.83
2018-07-03T05:29:09.080Z,1018.83
2018-07-03T05:30:17.935Z,1018.87
2018-07-03T05:31:26.827Z,1018.87
2018-07-03T05:32:36.028Z,1018.87
2018-07-03T05:33:45.175Z,1018.87
2018-07-03T05:34:54.038Z,1018.88
2018-07-03T05:36:02.902Z,1018.84
2018-07-03T05:37:11.785Z,1018.88
2018-07-03T05:38:21.339Z,1018.89
2018-07-03T05:39:30.353Z,1018.88
2018-07-03T05:40:39.324Z,1018.89
2018-07-03T05:41:48.359Z,1018.92
2018-07-03T05:42:57.289Z,1018.9
2018-07-03T05:44:06.091Z,1018.9
2018-07-03T05:45:15.054Z,1018.93
2018-07-03T05:46:23.918Z,1018.97
2018-07-03T05:47:33.332Z,1018.98
2018-07-03T05:48:42.259Z,1018.95
2018-07-03T05:49:51.058Z,1019.04
2018-07-03T05:51:00.027Z,1019.04
2018-07-03T05:52:09.446Z,1019.05
2018-07-03T05:53:18.820Z,1019.05
2018-07-03T05:54:27.446Z,1019.07
2018-07-03T05:55:36.862Z,1019.03
2018-07-03T05:56:46.052Z,1019.07
2018-07-03T05:57:55.196Z,1019.07
2018-07-03T05:59:04.059Z,1019.09
2018-07-03T06:00:13.205Z,1019.05
2018-07-03T06:01:22.341Z,1019.12
2018-07-03T06:02:31.454Z,1019.12
2018-07-03T06:03:40.317Z,1019.11
2018-07-03T06:04:49.734Z,1019.13
2018-07-03T06:05:58.597Z,1019.12
2018-07-03T06:07:07.459Z,1019.14
2018-07-03T06:08:16.322Z,1019.14
2018-07-03T06:09:25.189Z,1019.14
2018-07-03T06:10:34.492Z,1019.16
2018-07-03T06:11:43.354Z,1019.16
2018-07-03T06:12:52.500Z,1019.19
2018-07-03T06:14:02.168Z,1019.17
2018-07-03T06:15:11.399Z,1019.15
2018-07-03T06:16:20.538Z,1019.19
2018-07-03T06:17:29.407Z,1019.14
2018-07-03T06:18:38.272Z,1019.15
2018-07-03T06:19:47.236Z,1019.15
2018-07-03T06:20:56.097Z,1019.2
2018-07-03T06:22:04.962Z,1019.23
2018-07-03T06:23:13.830Z,1019.22
2018-07-03T06:24:22.691Z,1019.22
2018-07-03T06:25:31.885Z,1019.21
2018-07-03T06:26:41.027Z,1019.23
2018-07-03T06:27:49.891Z,1019.21
2018-07-03T06:28:58.883Z,1019.24
2018-07-03T06:30:08.042Z,1019.25
2018-07-03T06:31:17.333Z,1019.22
2018-07-03T06:32:26.208Z,1019.23
2018-07-03T06:33:35.346Z,1019.26
2018-07-03T06:34:44.723Z,1019.22
2018-07-03T06:35:53.874Z,1019.28
2018-07-03T06:37:03.366Z,1019.22
2018-07-03T06:38:12.234Z,1019.22
2018-07-03T06:39:21.092Z,1019.26
2018-07-03T06:40:29.956Z,1019.22
2018-07-03T06:41:38.822Z,1019.19
2018-07-03T06:42:47.884Z,1019.14
2018-07-03T06:43:56.748Z,1019.16
2018-07-03T06:45:05.610Z,1019.13
2018-07-03T06:46:14.474Z,1019.15
2018-07-03T06:47:23.423Z,1019.12
2018-07-03T06:48:32.308Z,1019.14
2018-07-03T06:49:41.447Z,1019.1
2018-07-03T06:50:50.312Z,1019.11
2018-07-03T06:51:59.172Z,1019.11
2018-07-03T06:53:08.314Z,1019.15
2018-07-03T06:54:17.276Z,1019.17
2018-07-03T06:55:26.151Z,1019.1
2018-07-03T06:56:35.006Z,1019.14
2018-07-03T06:57:44.147Z,1019.2
2018-07-03T06:58:53.307Z,1019.18
2018-07-03T07:00:02.227Z,1019.13
2018-07-03T07:01:11.088Z,1019.17
2018-07-03T07:02:19.951Z,1019.18
2018-07-03T07:03:28.812Z,1019.2
2018-07-03T07:04:37.684Z,1019.18
2018-07-03T07:05:46.696Z,1019.14
2018-07-03T07:06:56.114Z,1019.21
2018-07-03T07:08:04.981Z,1019.16
2018-07-03T07:09:13.936Z,1019.2
2018-07-03T07:10:23.640Z,1019.2
2018-07-03T07:11:32.554Z,1019.19
2018-07-03T07:12:41.418Z,1019.2
2018-07-03T07:13:50.287Z,1019.19
2018-07-03T07:14:59.167Z,1019.2
2018-07-03T07:16:08.404Z,1019.23
2018-07-03T07:17:17.894Z,1019.17
2018-07-03T07:18:26.762Z,1019.14
2018-07-03T07:19:35.902Z,1019.14
2018-07-03T07:20:44.770Z,1019.13
2018-07-03T07:21:53.633Z,1019.14
2018-07-03T07:23:02.965Z,1019.13
2018-07-03T07:24:12.106Z,1019.14
2018-07-03T07:25:20.970Z,1019.14
2018-07-03T07:26:29.834Z,1019.16
2018-07-03T07:27:38.701Z,1019.18
2018-07-03T07:28:48.017Z,1019.23
2018-07-03T07:29:56.883Z,1019.2
2018-07-03T07:31:05.750Z,1019.25
2018-07-03T07:32:15.173Z,1019.23
2018-07-03T07:33:24.320Z,1019.25
2018-07-03T07:34:33.517Z,1019.19
2018-07-03T07:35:42.658Z,1019.14
2018-07-03T07:36:51.807Z,1019.16
2018-07-03T07:38:00.675Z,1019.17
2018-07-03T07:39:09.540Z,1019.15
2018-07-03T07:40:18.744Z,1019.19
2018-07-03T07:41:27.942Z,1019.17
2018-07-03T07:42:37.104Z,1019.2
2018-07-03T07:43:45.987Z,1019.17
2018-07-03T07:44:54.853Z,1019.25
2018-07-03T07:46:04.052Z,1019.23
2018-07-03T07:47:12.917Z,1019.22
2018-07-03T07:48:21.785Z,1019.2
2018-07-03T07:49:30.651Z,1019.21
2018-07-03T07:50:39.520Z,1019.19
2018-07-03T07:51:48.439Z,1019.17
2018-07-03T07:52:57.305Z,1019.18
2018-07-03T07:54:06.452Z,1019.23
2018-07-03T07:55:15.320Z,1019.16
2018-07-03T07:56:24.255Z,1019.18
2018-07-03T07:57:33.457Z,1019.17
2018-07-03T07:58:42.330Z,1019.18
2018-07-03T07:59:51.210Z,1019.11
2018-07-03T08:01:01.802Z,1019.14
2018-07-03T08:02:15.101Z,1019.17
2018-07-03T08:03:24.020Z,1019.18
2018-07-03T08:04:33.188Z,1019.12
2018-07-03T08:05:44.498Z,1019.13
2018-07-03T08:06:58.983Z,1019.15
2018-07-03T08:08:10.661Z,1019.14
2018-07-03T08:09:22.346Z,1019.18
2018-07-03T08:10:36.929Z,1019.18
2018-07-03T08:11:52.290Z,1019.21
2018-07-03T08:13:04.877Z,1019.13
2018-07-03T08:14:17.184Z,1019.15
2018-07-03T08:15:28.883Z,1019.15
2018-07-03T08:16:38.032Z,1019.14
2018-07-03T08:17:46.899Z,1019.16
2018-07-03T08:18:56.320Z,1019.16
2018-07-03T08:20:05.387Z,1019.12
2018-07-03T08:21:14.255Z,1019.12
2018-07-03T08:22:23.127Z,1019.15
2018-07-03T08:23:32.016Z,1019.1
2018-07-03T08:24:40.886Z,1019.12
2018-07-03T08:25:50.133Z,1019.11
2018-07-03T08:26:59.023Z,1019.11
2018-07-03T08:28:07.889Z,1019.14
2018-07-03T08:29:17.033Z,1019.11
2018-07-03T08:30:25.900Z,1019.1
2018-07-03T08:31:35.140Z,1019.14
2018-07-03T08:32:44.007Z,1019.17
2018-07-03T08:33:52.871Z,1019.1
2018-07-03T08:35:01.739Z,1019.13
2018-07-03T08:36:10.879Z,1019.17
2018-07-03T08:37:20.096Z,1019.16
2018-07-03T08:38:29.241Z,1019.09
2018-07-03T08:39:38.109Z,1019.1
2018-07-03T08:40:46.975Z,1019.11
2018-07-03T08:41:55.844Z,1019.06
2018-07-03T08:43:05.365Z,1019.1
2018-07-03T08:44:14.230Z,1019.04
2018-07-03T08:45:23.098Z,1019.05
2018-07-03T08:46:32.237Z,1018.99
2018-07-03T08:47:41.104Z,1018.98
2018-07-03T08:48:50.417Z,1018.97
2018-07-03T08:49:59.557Z,1018.98
2018-07-03T08:51:08.714Z,1018.97
2018-07-03T08:52:17.851Z,1018.98
2018-07-03T08:53:27.070Z,1018.95
2018-07-03T08:54:36.287Z,1018.94
2018-07-03T08:55:45.434Z,1018.95
2018-07-03T08:56:54.312Z,1019.01
2018-07-03T08:58:03.178Z,1018.99
2018-07-03T08:59:12.044Z,1018.97
2018-07-03T09:00:21.062Z,1018.94
2018-07-03T09:01:29.929Z,1018.99
2018-07-03T09:02:39.073Z,1018.97
2018-07-03T09:03:48.245Z,1018.93
2018-07-03T09:04:57.445Z,1018.92
2018-07-03T09:06:06.362Z,1018.95
2018-07-03T09:07:15.228Z,1018.91
2018-07-03T09:08:24.095Z,1018.98
2018-07-03T09:09:32.962Z,1018.95
2018-07-03T09:10:42.108Z,1018.94
2018-07-03T09:11:51.106Z,1018.92
2018-07-03T09:13:00.346Z,1018.95
2018-07-03T09:14:10.525Z,1018.97
2018-07-03T09:15:20.292Z,1019.01
2018-07-03T09:16:29.253Z,1018.96
2018-07-03T09:17:38.488Z,1018.95
2018-07-03T09:18:48.149Z,1018.92
2018-07-03T09:19:57.080Z,1018.94
2018-07-03T09:21:06.189Z,1018.9
2018-07-03T09:22:15.881Z,1018.95
2018-07-03T09:23:25.642Z,1018.92
2018-07-03T09:24:36.200Z,1018.87
2018-07-03T09:25:45.087Z,1018.92
2018-07-03T09:26:54.288Z,1018.86
2018-07-03T09:28:04.148Z,1018.84
2018-07-03T09:29:13.329Z,1018.86
2018-07-03T09:30:22.288Z,1018.87
2018-07-03T09:31:32.382Z,1018.82
2018-07-03T09:32:41.855Z,1018.81
2018-07-03T09:33:51.147Z,1018.82
2018-07-03T09:35:00.637Z,1018.82
2018-07-03T09:36:09.902Z,1018.82
2018-07-03T09:37:19.311Z,1018.78
2018-07-03T09:38:28.894Z,1018.76
2018-07-03T09:39:37.987Z,1018.78
2018-07-03T09:40:47.044Z,1018.74
2018-07-03T09:41:56.389Z,1018.79
2018-07-03T09:43:06.028Z,1018.7
2018-07-03T09:44:15.532Z,1018.77
2018-07-03T09:45:25.031Z,1018.73
2018-07-03T09:46:34.925Z,1018.69
2018-07-03T09:47:44.266Z,1018.7
2018-07-03T09:48:54.723Z,1018.68
2018-07-03T09:50:04.085Z,1018.66
2018-07-03T09:51:13.253Z,1018.65
2018-07-03T09:52:22.611Z,1018.77
2018-07-03T09:53:32.522Z,1018.73
2018-07-03T09:54:42.169Z,1018.75
2018-07-03T09:55:51.548Z,1018.74
2018-07-03T09:57:00.753Z,1018.66
2018-07-03T09:58:10.820Z,1018.65
2018-07-03T09:59:20.652Z,1018.66
2018-07-03T10:00:29.876Z,1018.6
2018-07-03T10:01:38.740Z,1018.65
2018-07-03T10:02:47.607Z,1018.67
2018-07-03T10:03:56.795Z,1018.62
2018-07-03T10:05:06.223Z,1018.69
2018-07-03T10:06:15.096Z,1018.66
2018-07-03T10:07:23.961Z,1018.63
2018-07-03T10:08:32.826Z,1018.63
2018-07-03T10:09:41.792Z,1018.71
2018-07-03T10:10:51.491Z,1018.7
2018-07-03T10:12:00.360Z,1018.66
2018-07-03T10:13:09.228Z,1018.64
2018-07-03T10:14:18.103Z,1018.65
2018-07-03T10:15:26.972Z,1018.62
2018-07-03T10:16:36.133Z,1018.62
2018-07-03T10:17:45.014Z,1018.61
2018-07-03T10:18:54.205Z,1018.61
2018-07-03T10:20:03.045Z,1018.6
2018-07-03T10:21:12.242Z,1018.58
2018-07-03T10:22:21.383Z,1018.55
2018-07-03T10:23:30.524Z,1018.61
2018-07-03T10:24:39.390Z,1018.53
2018-07-03T10:25:48.254Z,1018.59
2018-07-03T10:26:57.270Z,1018.57
2018-07-03T10:28:06.413Z,1018.53
2018-07-03T10:29:15.554Z,1018.51
2018-07-03T10:30:24.425Z,1018.58
2018-07-03T10:31:33.286Z,1018.56
2018-07-03T10:32:42.153Z,1018.53
2018-07-03T10:33:51.026Z,1018.54
2018-07-03T10:34:59.892Z,1018.5
2018-07-03T10:36:08.761Z,1018.54
2018-07-03T10:37:17.627Z,1018.53
2018-07-03T10:38:26.844Z,1018.53
2018-07-03T10:39:35.710Z,1018.49
2018-07-03T10:40:44.675Z,1018.53
2018-07-03T10:41:53.540Z,1018.57
2018-07-03T10:43:02.737Z,1018.48
2018-07-03T10:44:11.654Z,1018.52
2018-07-03T10:45:20.799Z,1018.49
2018-07-03T10:46:29.670Z,1018.45
2018-07-03T10:47:38.534Z,1018.45
2018-07-03T10:48:47.702Z,1018.45
2018-07-03T10:49:57.202Z,1018.43
2018-07-03T10:51:06.070Z,1018.4
2018-07-03T10:52:14.938Z,1018.45
2018-07-03T10:53:24.203Z,1018.41
2018-07-03T10:54:33.072Z,1018.42
2018-07-03T10:55:42.042Z,1018.42
2018-07-03T10:56:50.909Z,1018.39
2018-07-03T10:58:00.051Z,1018.44
2018-07-03T10:59:09.206Z,1018.42
2018-07-03T11:00:18.082Z,1018.44
2018-07-03T11:01:27.098Z,1018.4
2018-07-03T11:02:35.965Z,1018.41
2018-07-03T11:03:45.112Z,1018.34
2018-07-03T11:04:53.979Z,1018.36
2018-07-03T11:06:02.847Z,1018.34
2018-07-03T11:07:12.144Z,1018.38
2018-07-03T11:08:21.303Z,1018.32
2018-07-03T11:09:30.442Z,1018.33
2018-07-03T11:10:39.307Z,1018.26
2018-07-03T11:11:48.173Z,1018.31
2018-07-03T11:12:57.141Z,1018.31
2018-07-03T11:14:06.099Z,1018.32
2018-07-03T11:15:15.272Z,1018.34
2018-07-03T11:16:24.695Z,1018.29
2018-07-03T11:17:34.197Z,1018.35
2018-07-03T11:18:43.062Z,1018.27
2018-07-03T11:19:52.021Z,1018.26
2018-07-03T11:21:01.689Z,1018.27
2018-07-03T11:22:10.556Z,1018.23
2018-07-03T11:23:19.702Z,1018.24
2018-07-03T11:24:28.816Z,1018.21
2018-07-03T11:25:37.682Z,1018.23
2018-07-03T11:26:46.550Z,1018.24
2018-07-03T11:27:55.416Z,1018.26
2018-07-03T11:29:04.292Z,1018.22
2018-07-03T11:30:13.308Z,1018.25
2018-07-03T11:31:22.430Z,1018.26
2018-07-03T11:32:31.532Z,1018.24
2018-07-03T11:33:40.942Z,1018.24
2018-07-03T11:34:50.756Z,1018.25
2018-07-03T11:36:00.203Z,1018.17
2018-07-03T11:37:09.154Z,1018.18
2018-07-03T11:38:18.020Z,1018.19
2018-07-03T11:39:27.160Z,1018.17
2018-07-03T11:40:36.306Z,1018.15
2018-07-03T11:41:45.410Z,1018.14
2018-07-03T11:42:54.283Z,1018.19
2018-07-03T11:44:03.808Z,1018.21
2018-07-03T11:45:12.677Z,1018.17
2018-07-03T11:46:21.818Z,1018.2
2018-07-03T11:47:30.743Z,1018.12
2018-07-03T11:48:39.614Z,1018.12
2018-07-03T11:49:48.793Z,1018.14
2018-07-03T11:50:57.622Z,1018.13
2018-07-03T11:52:06.487Z,1018.09
2018-07-03T11:53:15.628Z,1018.11
2018-07-03T11:54:24.508Z,1018.09
2018-07-03T11:55:33.367Z,1018.14
2018-07-03T11:56:42.233Z,1018.12
2018-07-03T11:57:51.378Z,1018.18
2018-07-03T11:59:00.523Z,1018.2
2018-07-03T12:00:09.394Z,1018.17
2018-07-03T12:01:18.274Z,1018.21
2018-07-03T12:02:27.130Z,1018.22
2018-07-03T12:03:35.998Z,1018.22
2018-07-03T12:04:44.865Z,1018.21
2018-07-03T12:05:53.732Z,1018.23
2018-07-03T12:07:02.600Z,1018.18
2018-07-03T12:08:11.744Z,1018.14
2018-07-03T12:09:20.619Z,1018.16
2018-07-03T12:10:29.490Z,1018.13
2018-07-03T12:11:38.364Z,1018.12
2018-07-03T12:12:47.513Z,1018.13
2018-07-03T12:13:56.394Z,1018.1
2018-07-03T12:15:05.265Z,1018.23
2018-07-03T12:16:14.142Z,1018.11
2018-07-03T12:17:23.567Z,1018.1
2018-07-03T12:18:32.692Z,1018.1
2018-07-03T12:19:41.633Z,1018.08
2018-07-03T12:20:50.766Z,1018.1
2018-07-03T12:22:00.197Z,1018.12
2018-07-03T12:23:09.350Z,1018.14
2018-07-03T12:24:18.599Z,1018.1
2018-07-03T12:25:27.477Z,1018.11
2018-07-03T12:26:36.363Z,1018.13
2018-07-03T12:27:45.239Z,1018.16
2018-07-03T12:28:54.197Z,1018.08
2018-07-03T12:30:03.430Z,1018.08
2018-07-03T12:31:12.304Z,1018.06
2018-07-03T12:32:21.184Z,1018.04
2018-07-03T12:33:30.058Z,1018.05
2018-07-03T12:34:40.516Z,1018.02
2018-07-03T12:35:49.716Z,1018.01
2018-07-03T12:36:58.593Z,1017.99
2018-07-03T12:38:07.471Z,1018
2018-07-03T12:39:16.348Z,1018
2018-07-03T12:40:25.222Z,1018.04
2018-07-03T12:41:34.249Z,1017.97
2018-07-03T12:42:43.124Z,1018.04
2018-07-03T12:43:52.001Z,1018.01
2018-07-03T12:45:01.206Z,1017.99
2018-07-03T12:46:10.082Z,1018.02
2018-07-03T12:47:19.013Z,1017.97
2018-07-03T12:48:27.889Z,1017.99
2018-07-03T12:49:36.764Z,1017.99
2018-07-03T12:50:45.639Z,1017.99
2018-07-03T12:51:54.515Z,1018.05
2018-07-03T12:53:03.442Z,1018.02
2018-07-03T12:54:12.320Z,1018.04
2018-07-03T12:55:21.276Z,1018.03
2018-07-03T12:56:30.436Z,1018
2018-07-03T12:57:39.315Z,1018.02
2018-07-03T12:58:48.650Z,1017.99
2018-07-03T12:59:57.833Z,1018
2018-07-03T13:01:06.961Z,1017.95
2018-07-03T13:02:15.980Z,1018
2018-07-03T13:03:25.424Z,1018.1
2018-07-03T13:04:34.552Z,1018.03
2018-07-03T13:05:43.792Z,1018
2018-07-03T13:06:52.677Z,1017.97
2018-07-03T13:08:01.559Z,1017.96
2018-07-03T13:09:10.808Z,1017.95
2018-07-03T13:10:20.120Z,1017.91
2018-07-03T13:11:28.999Z,1017.93
2018-07-03T13:12:37.888Z,1017.93
2018-07-03T13:13:46.771Z,1017.93
2018-07-03T13:14:55.647Z,1017.96
2018-07-03T13:16:04.582Z,1017.94
2018-07-03T13:17:13.463Z,1017.92
2018-07-03T13:18:22.354Z,1017.87
2018-07-03T13:19:31.236Z,1017.88
2018-07-03T13:20:40.117Z,1017.87
2018-07-03T13:21:49.148Z,1017.91
2018-07-03T13:22:58.024Z,1017.92
2018-07-03T13:24:06.904Z,1017.82
2018-07-03T13:25:15.784Z,1017.84
2018-07-03T13:26:24.665Z,1017.9
2018-07-03T13:27:33.896Z,1017.87
2018-07-03T13:28:43.060Z,1017.86
2018-07-03T13:29:51.990Z,1017.83
2018-07-03T13:31:00.824Z,1017.77
2018-07-03T13:32:09.704Z,1017.84
2018-07-03T13:33:18.964Z,1017.8
2018-07-03T13:34:27.843Z,1017.79
2018-07-03T13:35:37.280Z,1017.8
2018-07-03T13:36:46.444Z,1017.7
2018-07-03T13:37:55.333Z,1017.74
2018-07-03T13:39:04.559Z,1017.77
2018-07-03T13:40:13.442Z,1017.73
2018-07-03T13:41:22.600Z,1017.74
2018-07-03T13:42:31.483Z,1017.74
2018-07-03T13:43:40.364Z,1017.72
2018-07-03T13:44:49.243Z,1017.7
2018-07-03T13:45:58.125Z,1017.7
2018-07-03T13:47:07.010Z,1017.71
2018-07-03T13:48:15.941Z,1017.75
2018-07-03T13:49:25.682Z,1017.77
2018-07-03T13:50:34.989Z,1017.72
2018-07-03T13:51:44.150Z,1017.77
2018-07-03T13:52:53.041Z,1017.76
2018-07-03T13:54:01.918Z,1017.72
2018-07-03T13:55:10.804Z,1017.78
2018-07-03T13:56:19.837Z,1017.73
2018-07-03T13:57:28.718Z,1017.76
2018-07-03T13:58:37.875Z,1017.76